Terminal Aerodrome Forecast
Issued by NWS

Home | Current Version | Previous Version | Text Only | Print | Product List | Glossary On
Versions: 1 2 3 4 5 6 7 8 9 10 11 12 13 14
000
FTUS44 KJAN 252300
TAFGTR
TAF
KGTR 252338Z 2600/2624 28012G25KT P6SM VCSH BKN050
     FM260200 30013KT P6SM BKN040
     FM260600 31011KT P6SM OVC022
     FM260900 32013KT P6SM OVC015
     FM261600 31011KT P6SM SCT030=

USA.gov is the U.S. government's official web portal to all federal, state and local government web resources and services.